sensor_id;sensor_type;location;lat;lon;timestamp;temperature;humidity
65404;DHT22;52014;52.088;5.096;2022-10-15T00:01:13;12.60;99.90
65404;DHT22;52014;52.088;5.096;2022-10-15T00:03:39;12.60;99.90
65404;DHT22;52014;52.088;5.096;2022-10-15T00:06:06;12.60;99.90
65404;DHT22;52014;52.088;5.096;2022-10-15T00:08:32;12.70;99.90
65404;DHT22;52014;52.088;5.096;2022-10-15T00:11:10;12.70;99.90
65404;DHT22;52014;52.088;5.096;2022-10-15T00:13:36;12.70;99.90
65404;DHT22;52014;52.088;5.096;2022-10-15T00:16:02;12.70;99.90
65404;DHT22;52014;52.088;5.096;2022-10-15T00:18:29;12.70;99.90
65404;DHT22;52014;52.088;5.096;2022-10-15T00:20:55;12.60;99.90
65404;DHT22;52014;52.088;5.096;2022-10-15T00:23:20;12.60;99.90
65404;DHT22;52014;52.088;5.096;2022-10-15T00:25:46;12.70;99.90
65404;DHT22;52014;52.088;5.096;2022-10-15T00:28:11;12.70;99.90
65404;DHT22;52014;52.088;5.096;2022-10-15T00:30:37;12.70;99.90
65404;DHT22;52014;52.088;5.096;2022-10-15T00:33:02;12.70;99.90
65404;DHT22;52014;52.088;5.096;2022-10-15T00:35:28;12.80;99.90
65404;DHT22;52014;52.088;5.096;2022-10-15T00:37:53;12.80;99.90
65404;DHT22;52014;52.088;5.096;2022-10-15T00:40:19;12.80;99.90
65404;DHT22;52014;52.088;5.096;2022-10-15T00:42:47;12.80;99.90
65404;DHT22;52014;52.088;5.096;2022-10-15T00:45:13;12.80;99.90
65404;DHT22;52014;52.088;5.096;2022-10-15T00:47:39;12.80;99.90
65404;DHT22;52014;52.088;5.096;2022-10-15T00:50:10;12.70;99.90
65404;DHT22;52014;52.088;5.096;2022-10-15T00:55:30;12.60;99.90
65404;DHT22;52014;52.088;5.096;2022-10-15T00:57:57;12.60;99.90
65404;DHT22;52014;52.088;5.096;2022-10-15T01:00:23;12.60;99.90
65404;DHT22;52014;52.088;5.096;2022-10-15T01:02:48;12.60;99.90
65404;DHT22;52014;52.088;5.096;2022-10-15T01:05:14;12.60;99.90
65404;DHT22;52014;52.088;5.096;2022-10-15T01:07:40;12.60;99.90
65404;DHT22;52014;52.088;5.096;2022-10-15T01:10:05;12.60;99.90
65404;DHT22;52014;52.088;5.096;2022-10-15T01:15:14;12.60;99.90
65404;DHT22;52014;52.088;5.096;2022-10-15T01:17:43;12.60;99.90
65404;DHT22;52014;52.088;5.096;2022-10-15T01:30:55;12.50;99.90
65404;DHT22;52014;52.088;5.096;2022-10-15T01:33:24;12.50;99.90
65404;DHT22;52014;52.088;5.096;2022-10-15T01:35:56;12.40;99.90
65404;DHT22;52014;52.088;5.096;2022-10-15T01:38:33;12.40;99.90
65404;DHT22;52014;52.088;5.096;2022-10-15T01:43:45;12.40;99.90
65404;DHT22;52014;52.088;5.096;2022-10-15T01:46:35;12.50;99.90
65404;DHT22;52014;52.088;5.096;2022-10-15T01:48:58;12.50;99.90
65404;DHT22;52014;52.088;5.096;2022-10-15T01:51:25;12.60;99.90
65404;DHT22;52014;52.088;5.096;2022-10-15T01:53:51;12.60;99.90
65404;DHT22;52014;52.088;5.096;2022-10-15T01:56:18;12.60;99.90
65404;DHT22;52014;52.088;5.096;2022-10-15T01:58:45;12.60;99.90
65404;DHT22;52014;52.088;5.096;2022-10-15T02:01:12;12.60;99.90
65404;DHT22;52014;52.088;5.096;2022-10-15T02:03:44;12.70;99.90
65404;DHT22;52014;52.088;5.096;2022-10-15T02:06:11;12.70;99.90
65404;DHT22;52014;52.088;5.096;2022-10-15T02:08:43;12.70;99.90
65404;DHT22;52014;52.088;5.096;2022-10-15T02:11:15;12.70;99.90
65404;DHT22;52014;52.088;5.096;2022-10-15T02:21:20;12.70;99.90
65404;DHT22;52014;52.088;5.096;2022-10-15T02:23:56;12.70;99.90
65404;DHT22;52014;52.088;5.096;2022-10-15T02:26:26;12.70;99.90
65404;DHT22;52014;52.088;5.096;2022-10-15T02:28:54;12.70;99.90
65404;DHT22;52014;52.088;5.096;2022-10-15T02:31:20;12.60;99.90
65404;DHT22;52014;52.088;5.096;2022-10-15T02:33:47;12.60;99.90
65404;DHT22;52014;52.088;5.096;2022-10-15T02:36:14;12.60;99.90
65404;DHT22;52014;52.088;5.096;2022-10-15T02:38:41;12.60;99.90
65404;DHT22;52014;52.088;5.096;2022-10-15T02:41:07;12.60;99.90
65404;DHT22;52014;52.088;5.096;2022-10-15T02:43:34;12.60;99.90
65404;DHT22;52014;52.088;5.096;2022-10-15T02:45:59;12.50;99.90
65404;DHT22;52014;52.088;5.096;2022-10-15T02:48:25;12.50;99.90
65404;DHT22;52014;52.088;5.096;2022-10-15T02:50:50;12.50;99.90
65404;DHT22;52014;52.088;5.096;2022-10-15T02:53:16;12.40;99.90
65404;DHT22;52014;52.088;5.096;2022-10-15T02:55:41;12.40;99.90
65404;DHT22;52014;52.088;5.096;2022-10-15T02:58:06;12.40;99.90
65404;DHT22;52014;52.088;5.096;2022-10-15T03:00:32;12.40;99.90
65404;DHT22;52014;52.088;5.096;2022-10-15T03:02:57;12.30;99.90
65404;DHT22;52014;52.088;5.096;2022-10-15T03:05:23;12.40;99.90
65404;DHT22;52014;52.088;5.096;2022-10-15T03:07:48;12.30;99.90
65404;DHT22;52014;52.088;5.096;2022-10-15T03:10:14;12.30;99.90
65404;DHT22;52014;52.088;5.096;2022-10-15T03:12:39;12.30;99.90
65404;DHT22;52014;52.088;5.096;2022-10-15T03:15:06;12.30;99.90
65404;DHT22;52014;52.088;5.096;2022-10-15T03:17:31;12.20;99.90
65404;DHT22;52014;52.088;5.096;2022-10-15T03:19:57;12.20;99.90
65404;DHT22;52014;52.088;5.096;2022-10-15T03:22:22;12.20;99.90
65404;DHT22;52014;52.088;5.096;2022-10-15T03:24:48;12.20;99.90
65404;DHT22;52014;52.088;5.096;2022-10-15T03:27:13;12.20;99.90
65404;DHT22;52014;52.088;5.096;2022-10-15T03:29:38;12.20;99.90
65404;DHT22;52014;52.088;5.096;2022-10-15T03:32:04;12.20;99.90
65404;DHT22;52014;52.088;5.096;2022-10-15T03:34:29;12.10;99.90
65404;DHT22;52014;52.088;5.096;2022-10-15T03:36:55;12.10;99.90
65404;DHT22;52014;52.088;5.096;2022-10-15T03:39:20;12.10;99.90
65404;DHT22;52014;52.088;5.096;2022-10-15T03:41:46;12.10;99.90
65404;DHT22;52014;52.088;5.096;2022-10-15T03:44:11;12.10;99.90
65404;DHT22;52014;52.088;5.096;2022-10-15T03:46:37;12.10;99.90
65404;DHT22;52014;52.088;5.096;2022-10-15T03:49:02;12.10;99.90
65404;DHT22;52014;52.088;5.096;2022-10-15T03:51:28;12.10;99.90
65404;DHT22;52014;52.088;5.096;2022-10-15T03:53:53;12.10;99.90
65404;DHT22;52014;52.088;5.096;2022-10-15T03:56:19;12.00;99.90
65404;DHT22;52014;52.088;5.096;2022-10-15T03:58:44;12.00;99.90
65404;DHT22;52014;52.088;5.096;2022-10-15T04:01:11;12.00;99.90
65404;DHT22;52014;52.088;5.096;2022-10-15T04:03:37;12.00;99.90
65404;DHT22;52014;52.088;5.096;2022-10-15T04:06:02;12.00;99.90
65404;DHT22;52014;52.088;5.096;2022-10-15T04:08:28;11.90;99.90
65404;DHT22;52014;52.088;5.096;2022-10-15T04:10:53;11.90;99.90
65404;DHT22;52014;52.088;5.096;2022-10-15T04:13:19;11.90;99.90
65404;DHT22;52014;52.088;5.096;2022-10-15T04:15:44;11.90;99.90
65404;DHT22;52014;52.088;5.096;2022-10-15T04:18:10;11.90;99.90
65404;DHT22;52014;52.088;5.096;2022-10-15T04:20:36;11.90;99.90
65404;DHT22;52014;52.088;5.096;2022-10-15T04:23:07;11.90;99.90
65404;DHT22;52014;52.088;5.096;2022-10-15T04:25:32;11.90;99.90
65404;DHT22;52014;52.088;5.096;2022-10-15T04:27:58;11.90;99.90
65404;DHT22;52014;52.088;5.096;2022-10-15T04:30:23;11.90;99.90
65404;DHT22;52014;52.088;5.096;2022-10-15T04:32:51;12.00;99.90
65404;DHT22;52014;52.088;5.096;2022-10-15T04:35:17;12.10;99.90
65404;DHT22;52014;52.088;5.096;2022-10-15T04:37:43;12.10;99.90
65404;DHT22;52014;52.088;5.096;2022-10-15T04:40:08;12.20;99.90
65404;DHT22;52014;52.088;5.096;2022-10-15T04:42:34;12.20;99.90
65404;DHT22;52014;52.088;5.096;2022-10-15T04:44:59;12.20;99.90
65404;DHT22;52014;52.088;5.096;2022-10-15T04:47:25;12.30;99.90
65404;DHT22;52014;52.088;5.096;2022-10-15T04:49:50;12.30;99.90
65404;DHT22;52014;52.088;5.096;2022-10-15T04:52:16;12.30;99.90
65404;DHT22;52014;52.088;5.096;2022-10-15T04:54:41;12.30;99.90
65404;DHT22;52014;52.088;5.096;2022-10-15T04:57:06;12.30;99.90
65404;DHT22;52014;52.088;5.096;2022-10-15T04:59:32;12.30;99.90
65404;DHT22;52014;52.088;5.096;2022-10-15T05:01:57;12.30;99.90
65404;DHT22;52014;52.088;5.096;2022-10-15T05:04:23;12.30;99.90
65404;DHT22;52014;52.088;5.096;2022-10-15T05:06:48;12.40;99.90
65404;DHT22;52014;52.088;5.096;2022-10-15T05:09:14;12.40;99.90
65404;DHT22;52014;52.088;5.096;2022-10-15T05:11:39;12.40;99.90
65404;DHT22;52014;52.088;5.096;2022-10-15T05:14:05;12.40;99.90
65404;DHT22;52014;52.088;5.096;2022-10-15T05:16:31;12.40;99.90
65404;DHT22;52014;52.088;5.096;2022-10-15T05:19:00;12.40;99.90
65404;DHT22;52014;52.088;5.096;2022-10-15T05:21:26;12.50;99.90
65404;DHT22;52014;52.088;5.096;2022-10-15T05:23:52;12.50;99.90
65404;DHT22;52014;52.088;5.096;2022-10-15T05:26:18;12.40;99.90
65404;DHT22;52014;52.088;5.096;2022-10-15T05:28:44;12.50;99.90
65404;DHT22;52014;52.088;5.096;2022-10-15T05:31:10;12.50;99.90
65404;DHT22;52014;52.088;5.096;2022-10-15T05:33:36;12.50;99.90
65404;DHT22;52014;52.088;5.096;2022-10-15T05:36:08;12.50;99.90
65404;DHT22;52014;52.088;5.096;2022-10-15T05:38:34;12.60;99.90
65404;DHT22;52014;52.088;5.096;2022-10-15T05:40:59;12.60;99.90
65404;DHT22;52014;52.088;5.096;2022-10-15T05:43:25;12.60;99.90
65404;DHT22;52014;52.088;5.096;2022-10-15T05:45:54;12.60;99.90
65404;DHT22;52014;52.088;5.096;2022-10-15T05:48:19;12.60;99.90
65404;DHT22;52014;52.088;5.096;2022-10-15T05:50:44;12.60;99.90
65404;DHT22;52014;52.088;5.096;2022-10-15T05:53:10;12.60;99.90
65404;DHT22;52014;52.088;5.096;2022-10-15T05:55:35;12.60;99.90
65404;DHT22;52014;52.088;5.096;2022-10-15T05:58:02;12.60;99.90
65404;DHT22;52014;52.088;5.096;2022-10-15T06:00:27;12.60;99.90
65404;DHT22;52014;52.088;5.096;2022-10-15T06:02:53;12.60;99.90
65404;DHT22;52014;52.088;5.096;2022-10-15T06:05:18;12.60;99.90
65404;DHT22;52014;52.088;5.096;2022-10-15T06:07:44;12.60;99.90
65404;DHT22;52014;52.088;5.096;2022-10-15T06:10:09;12.70;99.90
65404;DHT22;52014;52.088;5.096;2022-10-15T06:12:35;12.60;99.90
65404;DHT22;52014;52.088;5.096;2022-10-15T06:15:00;12.60;99.90
65404;DHT22;52014;52.088;5.096;2022-10-15T06:17:25;12.70;99.90
65404;DHT22;52014;52.088;5.096;2022-10-15T06:19:51;12.70;99.90
65404;DHT22;52014;52.088;5.096;2022-10-15T06:22:16;12.70;99.90
65404;DHT22;52014;52.088;5.096;2022-10-15T06:24:42;12.70;99.90
65404;DHT22;52014;52.088;5.096;2022-10-15T06:27:07;12.70;99.90
65404;DHT22;52014;52.088;5.096;2022-10-15T06:29:34;12.80;99.90
65404;DHT22;52014;52.088;5.096;2022-10-15T06:31:59;12.70;99.90
65404;DHT22;52014;52.088;5.096;2022-10-15T06:34:26;12.80;99.90
65404;DHT22;52014;52.088;5.096;2022-10-15T06:36:51;12.80;99.90
65404;DHT22;52014;52.088;5.096;2022-10-15T06:39:17;12.80;99.90
65404;DHT22;52014;52.088;5.096;2022-10-15T06:41:42;12.80;99.90
65404;DHT22;52014;52.088;5.096;2022-10-15T06:44:08;12.80;99.90
65404;DHT22;52014;52.088;5.096;2022-10-15T06:46:33;12.80;99.90
65404;DHT22;52014;52.088;5.096;2022-10-15T06:48:59;12.80;99.90
65404;DHT22;52014;52.088;5.096;2022-10-15T06:51:24;12.90;99.90
65404;DHT22;52014;52.088;5.096;2022-10-15T06:53:50;12.90;99.90
65404;DHT22;52014;52.088;5.096;2022-10-15T06:56:15;12.90;99.90
65404;DHT22;52014;52.088;5.096;2022-10-15T06:58:41;12.90;99.90
65404;DHT22;52014;52.088;5.096;2022-10-15T07:01:07;12.90;99.90
65404;DHT22;52014;52.088;5.096;2022-10-15T07:03:34;12.90;99.90
65404;DHT22;52014;52.088;5.096;2022-10-15T07:06:01;12.90;99.90
65404;DHT22;52014;52.088;5.096;2022-10-15T07:08:27;12.90;99.90
65404;DHT22;52014;52.088;5.096;2022-10-15T07:10:53;12.90;99.90
65404;DHT22;52014;52.088;5.096;2022-10-15T07:13:18;13.00;99.90
65404;DHT22;52014;52.088;5.096;2022-10-15T07:15:44;13.00;99.90
65404;DHT22;52014;52.088;5.096;2022-10-15T07:18:10;13.00;99.90
65404;DHT22;52014;52.088;5.096;2022-10-15T07:20:35;13.00;99.90
65404;DHT22;52014;52.088;5.096;2022-10-15T07:23:01;13.00;99.90
65404;DHT22;52014;52.088;5.096;2022-10-15T07:25:27;13.00;99.90
65404;DHT22;52014;52.088;5.096;2022-10-15T07:27:52;13.00;99.90
65404;DHT22;52014;52.088;5.096;2022-10-15T07:30:20;13.10;99.90
65404;DHT22;52014;52.088;5.096;2022-10-15T07:32:45;13.10;99.90
65404;DHT22;52014;52.088;5.096;2022-10-15T07:35:11;13.20;99.90
65404;DHT22;52014;52.088;5.096;2022-10-15T07:37:36;13.20;99.90
65404;DHT22;52014;52.088;5.096;2022-10-15T07:40:02;13.20;99.90
65404;DHT22;52014;52.088;5.096;2022-10-15T07:42:27;13.20;99.90
65404;DHT22;52014;52.088;5.096;2022-10-15T07:44:53;13.20;99.90
65404;DHT22;52014;52.088;5.096;2022-10-15T07:47:18;13.30;99.90
65404;DHT22;52014;52.088;5.096;2022-10-15T07:49:44;13.30;99.90
65404;DHT22;52014;52.088;5.096;2022-10-15T07:52:09;13.30;99.90
65404;DHT22;52014;52.088;5.096;2022-10-15T07:54:35;13.30;99.90
65404;DHT22;52014;52.088;5.096;2022-10-15T07:57:00;13.30;99.90
65404;DHT22;52014;52.088;5.096;2022-10-15T07:59:26;13.40;99.90
65404;DHT22;52014;52.088;5.096;2022-10-15T08:01:51;13.40;99.90
65404;DHT22;52014;52.088;5.096;2022-10-15T08:04:17;13.40;99.90
65404;DHT22;52014;52.088;5.096;2022-10-15T08:06:44;13.40;99.90
65404;DHT22;52014;52.088;5.096;2022-10-15T08:09:10;13.40;99.90
65404;DHT22;52014;52.088;5.096;2022-10-15T08:11:36;13.40;99.90
65404;DHT22;52014;52.088;5.096;2022-10-15T08:14:01;13.50;99.90
65404;DHT22;52014;52.088;5.096;2022-10-15T08:16:28;13.50;99.90
65404;DHT22;52014;52.088;5.096;2022-10-15T08:18:53;13.50;99.90
65404;DHT22;52014;52.088;5.096;2022-10-15T08:21:19;13.50;99.90
65404;DHT22;52014;52.088;5.096;2022-10-15T08:23:44;13.50;99.90
65404;DHT22;52014;52.088;5.096;2022-10-15T08:26:10;13.50;99.90
65404;DHT22;52014;52.088;5.096;2022-10-15T08:28:35;13.70;99.90
65404;DHT22;52014;52.088;5.096;2022-10-15T08:31:02;13.80;99.90
65404;DHT22;52014;52.088;5.096;2022-10-15T08:33:27;13.90;99.90
65404;DHT22;52014;52.088;5.096;2022-10-15T08:35:53;14.30;99.90
65404;DHT22;52014;52.088;5.096;2022-10-15T08:38:19;14.50;99.90
65404;DHT22;52014;52.088;5.096;2022-10-15T08:40:47;14.80;99.90
65404;DHT22;52014;52.088;5.096;2022-10-15T08:43:18;14.60;99.90
65404;DHT22;52014;52.088;5.096;2022-10-15T08:45:44;14.60;99.90
65404;DHT22;52014;52.088;5.096;2022-10-15T08:48:18;14.80;99.90
65404;DHT22;52014;52.088;5.096;2022-10-15T08:50:51;14.50;99.90
65404;DHT22;52014;52.088;5.096;2022-10-15T08:53:19;14.50;99.90
65404;DHT22;52014;52.088;5.096;2022-10-15T08:55:47;14.60;99.90
65404;DHT22;52014;52.088;5.096;2022-10-15T08:58:21;14.70;99.90
65404;DHT22;52014;52.088;5.096;2022-10-15T09:08:35;14.60;99.90
65404;DHT22;52014;52.088;5.096;2022-10-15T09:11:12;14.60;99.90
65404;DHT22;52014;52.088;5.096;2022-10-15T09:13:41;14.70;99.90
65404;DHT22;52014;52.088;5.096;2022-10-15T09:18:35;14.80;99.90
65404;DHT22;52014;52.088;5.096;2022-10-15T09:21:05;14.70;99.90
65404;DHT22;52014;52.088;5.096;2022-10-15T09:23:32;14.70;99.90
65404;DHT22;52014;52.088;5.096;2022-10-15T09:26:19;14.80;99.90
65404;DHT22;52014;52.088;5.096;2022-10-15T09:29:00;14.70;99.90
65404;DHT22;52014;52.088;5.096;2022-10-15T09:31:29;14.60;99.90
65404;DHT22;52014;52.088;5.096;2022-10-15T09:34:02;14.50;99.90
65404;DHT22;52014;52.088;5.096;2022-10-15T09:39:00;14.50;99.90
65404;DHT22;52014;52.088;5.096;2022-10-15T09:43:55;14.40;99.90
65404;DHT22;52014;52.088;5.096;2022-10-15T09:46:21;14.40;99.90
65404;DHT22;52014;52.088;5.096;2022-10-15T09:54:19;14.20;99.90
65404;DHT22;52014;52.088;5.096;2022-10-15T09:56:48;14.10;99.90
65404;DHT22;52014;52.088;5.096;2022-10-15T09:59:16;14.00;99.90
65404;DHT22;52014;52.088;5.096;2022-10-15T10:01:55;14.00;99.90
65404;DHT22;52014;52.088;5.096;2022-10-15T10:04:20;14.10;99.90
65404;DHT22;52014;52.088;5.096;2022-10-15T10:06:50;14.10;99.90
65404;DHT22;52014;52.088;5.096;2022-10-15T10:09:18;14.10;99.90
65404;DHT22;52014;52.088;5.096;2022-10-15T10:11:54;14.20;99.90
65404;DHT22;52014;52.088;5.096;2022-10-15T10:14:40;14.20;99.90
65404;DHT22;52014;52.088;5.096;2022-10-15T10:17:17;14.20;99.90
65404;DHT22;52014;52.088;5.096;2022-10-15T10:19:44;14.20;99.90
65404;DHT22;52014;52.088;5.096;2022-10-15T10:22:15;14.20;99.90
65404;DHT22;52014;52.088;5.096;2022-10-15T10:24:41;14.30;99.90
65404;DHT22;52014;52.088;5.096;2022-10-15T10:27:20;14.30;99.90
65404;DHT22;52014;52.088;5.096;2022-10-15T10:29:47;14.30;99.90
65404;DHT22;52014;52.088;5.096;2022-10-15T10:32:20;14.20;99.90
65404;DHT22;52014;52.088;5.096;2022-10-15T10:34:46;14.20;99.90
65404;DHT22;52014;52.088;5.096;2022-10-15T10:37:12;14.20;99.90
65404;DHT22;52014;52.088;5.096;2022-10-15T10:39:37;14.20;99.90
65404;DHT22;52014;52.088;5.096;2022-10-15T10:42:04;14.10;99.90
65404;DHT22;52014;52.088;5.096;2022-10-15T10:49:30;14.10;99.90
65404;DHT22;52014;52.088;5.096;2022-10-15T10:51:56;14.10;99.90
65404;DHT22;52014;52.088;5.096;2022-10-15T10:54:22;14.20;99.90
65404;DHT22;52014;52.088;5.096;2022-10-15T10:56:48;14.10;99.90
65404;DHT22;52014;52.088;5.096;2022-10-15T10:59:16;14.20;99.90
65404;DHT22;52014;52.088;5.096;2022-10-15T11:01:42;14.20;99.90
65404;DHT22;52014;52.088;5.096;2022-10-15T11:04:10;14.20;99.90
65404;DHT22;52014;52.088;5.096;2022-10-15T11:16:51;14.20;99.90
65404;DHT22;52014;52.088;5.096;2022-10-15T11:19:23;14.30;99.90
65404;DHT22;52014;52.088;5.096;2022-10-15T11:21:53;14.30;99.90
65404;DHT22;52014;52.088;5.096;2022-10-15T11:39:50;14.50;99.90
65404;DHT22;52014;52.088;5.096;2022-10-15T11:42:20;14.50;99.90
65404;DHT22;52014;52.088;5.096;2022-10-15T11:50:01;14.60;99.90
65404;DHT22;52014;52.088;5.096;2022-10-15T11:57:26;14.60;99.90
65404;DHT22;52014;52.088;5.096;2022-10-15T11:59:54;14.70;99.90
65404;DHT22;52014;52.088;5.096;2022-10-15T12:02:21;14.70;99.90
65404;DHT22;52014;52.088;5.096;2022-10-15T12:04:49;14.80;99.90
65404;DHT22;52014;52.088;5.096;2022-10-15T12:07:21;14.70;99.90
65404;DHT22;52014;52.088;5.096;2022-10-15T12:09:49;14.80;99.90
65404;DHT22;52014;52.088;5.096;2022-10-15T12:19:47;15.00;99.90
65404;DHT22;52014;52.088;5.096;2022-10-15T12:22:13;15.00;99.90
65404;DHT22;52014;52.088;5.096;2022-10-15T12:24:55;15.10;99.90
65404;DHT22;52014;52.088;5.096;2022-10-15T12:27:27;15.10;99.90
65404;DHT22;52014;52.088;5.096;2022-10-15T12:32:35;15.20;99.90
65404;DHT22;52014;52.088;5.096;2022-10-15T12:35:02;15.10;99.90
65404;DHT22;52014;52.088;5.096;2022-10-15T12:37:30;15.20;99.90
65404;DHT22;52014;52.088;5.096;2022-10-15T12:40:02;15.20;99.90
65404;DHT22;52014;52.088;5.096;2022-10-15T12:42:32;15.10;99.90
65404;DHT22;52014;52.088;5.096;2022-10-15T12:44:59;15.10;99.90
65404;DHT22;52014;52.088;5.096;2022-10-15T12:50:17;15.10;99.90
65404;DHT22;52014;52.088;5.096;2022-10-15T12:52:50;15.10;99.90
65404;DHT22;52014;52.088;5.096;2022-10-15T12:55:26;15.10;99.90
65404;DHT22;52014;52.088;5.096;2022-10-15T13:00:26;15.10;99.90
65404;DHT22;52014;52.088;5.096;2022-10-15T13:02:52;15.10;99.90
65404;DHT22;52014;52.088;5.096;2022-10-15T13:05:27;15.10;99.90
65404;DHT22;52014;52.088;5.096;2022-10-15T13:07:53;15.10;99.90
65404;DHT22;52014;52.088;5.096;2022-10-15T13:10:22;15.20;99.90
65404;DHT22;52014;52.088;5.096;2022-10-15T13:12:50;15.20;99.90
65404;DHT22;52014;52.088;5.096;2022-10-15T13:15:24;15.30;99.90
65404;DHT22;52014;52.088;5.096;2022-10-15T13:17:49;15.30;99.90
65404;DHT22;52014;52.088;5.096;2022-10-15T13:23:19;15.40;99.90
65404;DHT22;52014;52.088;5.096;2022-10-15T13:25:49;15.30;99.90
65404;DHT22;52014;52.088;5.096;2022-10-15T13:28:33;15.30;99.90
65404;DHT22;52014;52.088;5.096;2022-10-15T13:31:01;15.30;99.90
65404;DHT22;52014;52.088;5.096;2022-10-15T13:33:27;15.40;99.90
65404;DHT22;52014;52.088;5.096;2022-10-15T13:35:53;15.40;99.90
65404;DHT22;52014;52.088;5.096;2022-10-15T13:38:22;15.50;99.90
65404;DHT22;52014;52.088;5.096;2022-10-15T13:40:48;15.40;99.90
65404;DHT22;52014;52.088;5.096;2022-10-15T13:43:18;15.40;99.90
65404;DHT22;52014;52.088;5.096;2022-10-15T13:46:02;15.50;99.90
65404;DHT22;52014;52.088;5.096;2022-10-15T13:48:29;15.50;99.90
65404;DHT22;52014;52.088;5.096;2022-10-15T13:50:56;15.40;99.90
65404;DHT22;52014;52.088;5.096;2022-10-15T13:53:26;15.60;99.90
65404;DHT22;52014;52.088;5.096;2022-10-15T13:55:54;15.60;99.90
65404;DHT22;52014;52.088;5.096;2022-10-15T13:58:21;15.60;99.90
65404;DHT22;52014;52.088;5.096;2022-10-15T14:00:56;15.60;99.90
65404;DHT22;52014;52.088;5.096;2022-10-15T14:03:28;15.50;99.90
65404;DHT22;52014;52.088;5.096;2022-10-15T14:05:55;15.50;99.90
65404;DHT22;52014;52.088;5.096;2022-10-15T14:08:22;15.50;99.90
65404;DHT22;52014;52.088;5.096;2022-10-15T14:10:48;15.40;99.90
65404;DHT22;52014;52.088;5.096;2022-10-15T14:13:13;15.40;99.90
65404;DHT22;52014;52.088;5.096;2022-10-15T14:18:07;15.20;99.90
65404;DHT22;52014;52.088;5.096;2022-10-15T14:20:33;15.20;99.90
65404;DHT22;52014;52.088;5.096;2022-10-15T14:22:59;15.10;99.90
65404;DHT22;52014;52.088;5.096;2022-10-15T14:25:24;15.00;99.90
65404;DHT22;52014;52.088;5.096;2022-10-15T14:27:50;15.00;99.90
65404;DHT22;52014;52.088;5.096;2022-10-15T14:30:31;15.00;99.90
65404;DHT22;52014;52.088;5.096;2022-10-15T14:32:58;15.00;99.90
65404;DHT22;52014;52.088;5.096;2022-10-15T14:35:24;15.00;99.90
65404;DHT22;52014;52.088;5.096;2022-10-15T14:40:24;15.10;99.90
65404;DHT22;52014;52.088;5.096;2022-10-15T14:43:00;15.00;99.90
65404;DHT22;52014;52.088;5.096;2022-10-15T14:45:30;14.90;99.90
65404;DHT22;52014;52.088;5.096;2022-10-15T14:47:56;14.80;99.90
65404;DHT22;52014;52.088;5.096;2022-10-15T14:50:26;14.70;99.90
65404;DHT22;52014;52.088;5.096;2022-10-15T14:52:53;14.70;99.90
65404;DHT22;52014;52.088;5.096;2022-10-15T14:57:47;14.80;99.90
65404;DHT22;52014;52.088;5.096;2022-10-15T15:02:45;14.80;99.90
65404;DHT22;52014;52.088;5.096;2022-10-15T15:07:36;14.80;99.90
65404;DHT22;52014;52.088;5.096;2022-10-15T15:10:03;14.80;99.90
65404;DHT22;52014;52.088;5.096;2022-10-15T15:12:29;14.80;99.90
65404;DHT22;52014;52.088;5.096;2022-10-15T15:14:56;14.80;99.90
65404;DHT22;52014;52.088;5.096;2022-10-15T15:17:25;14.80;99.90
65404;DHT22;52014;52.088;5.096;2022-10-15T15:19:52;14.70;99.90
65404;DHT22;52014;52.088;5.096;2022-10-15T15:22:28;14.70;99.90
65404;DHT22;52014;52.088;5.096;2022-10-15T15:24:55;14.60;99.90
65404;DHT22;52014;52.088;5.096;2022-10-15T15:27:22;14.60;99.90
65404;DHT22;52014;52.088;5.096;2022-10-15T15:29:48;14.50;99.90
65404;DHT22;52014;52.088;5.096;2022-10-15T15:32:13;14.60;99.90
65404;DHT22;52014;52.088;5.096;2022-10-15T15:34:40;14.50;99.90
65404;DHT22;52014;52.088;5.096;2022-10-15T15:37:15;14.50;99.90
65404;DHT22;52014;52.088;5.096;2022-10-15T15:39:41;14.50;99.90
65404;DHT22;52014;52.088;5.096;2022-10-15T15:42:11;14.40;99.90
65404;DHT22;52014;52.088;5.096;2022-10-15T15:44:36;14.40;99.90
65404;DHT22;52014;52.088;5.096;2022-10-15T15:47:02;14.40;99.90
65404;DHT22;52014;52.088;5.096;2022-10-15T15:49:27;14.30;99.90
65404;DHT22;52014;52.088;5.096;2022-10-15T15:51:53;14.30;99.90
65404;DHT22;52014;52.088;5.096;2022-10-15T15:54:18;14.20;99.90
65404;DHT22;52014;52.088;5.096;2022-10-15T15:56:43;14.20;99.90
65404;DHT22;52014;52.088;5.096;2022-10-15T15:59:09;14.10;99.90
65404;DHT22;52014;52.088;5.096;2022-10-15T16:01:35;14.10;99.90
65404;DHT22;52014;52.088;5.096;2022-10-15T16:04:00;14.10;99.90
65404;DHT22;52014;52.088;5.096;2022-10-15T16:06:26;14.00;99.90
65404;DHT22;52014;52.088;5.096;2022-10-15T16:08:51;14.00;99.90
65404;DHT22;52014;52.088;5.096;2022-10-15T16:11:17;14.00;99.90
65404;DHT22;52014;52.088;5.096;2022-10-15T16:13:42;13.90;99.90
65404;DHT22;52014;52.088;5.096;2022-10-15T16:16:08;13.90;99.90
65404;DHT22;52014;52.088;5.096;2022-10-15T16:18:34;13.90;99.90
65404;DHT22;52014;52.088;5.096;2022-10-15T16:20:59;13.90;99.90
65404;DHT22;52014;52.088;5.096;2022-10-15T16:23:25;13.80;99.90
65404;DHT22;52014;52.088;5.096;2022-10-15T16:25:50;13.80;99.90
65404;DHT22;52014;52.088;5.096;2022-10-15T16:28:16;13.70;99.90
65404;DHT22;52014;52.088;5.096;2022-10-15T16:30:41;13.70;99.90
65404;DHT22;52014;52.088;5.096;2022-10-15T16:33:07;13.70;99.90
65404;DHT22;52014;52.088;5.096;2022-10-15T16:35:32;13.60;99.90
65404;DHT22;52014;52.088;5.096;2022-10-15T16:37:58;13.70;99.90
65404;DHT22;52014;52.088;5.096;2022-10-15T16:40:24;13.60;99.90
65404;DHT22;52014;52.088;5.096;2022-10-15T16:42:50;13.70;99.90
65404;DHT22;52014;52.088;5.096;2022-10-15T16:45:15;13.50;99.90
65404;DHT22;52014;52.088;5.096;2022-10-15T16:47:41;13.50;99.90
65404;DHT22;52014;52.088;5.096;2022-10-15T16:50:07;13.50;99.90
65404;DHT22;52014;52.088;5.096;2022-10-15T16:52:33;13.50;99.90
65404;DHT22;52014;52.088;5.096;2022-10-15T16:54:58;13.50;99.90
65404;DHT22;52014;52.088;5.096;2022-10-15T16:57:24;13.50;99.90
65404;DHT22;52014;52.088;5.096;2022-10-15T16:59:49;13.50;99.90
65404;DHT22;52014;52.088;5.096;2022-10-15T17:02:15;13.50;99.90
65404;DHT22;52014;52.088;5.096;2022-10-15T17:04:41;13.50;99.90
65404;DHT22;52014;52.088;5.096;2022-10-15T17:07:06;13.40;99.90
65404;DHT22;52014;52.088;5.096;2022-10-15T17:09:32;13.40;99.90
65404;DHT22;52014;52.088;5.096;2022-10-15T17:11:57;13.40;99.90
65404;DHT22;52014;52.088;5.096;2022-10-15T17:14:23;13.40;99.90
65404;DHT22;52014;52.088;5.096;2022-10-15T17:16:49;13.40;99.90
65404;DHT22;52014;52.088;5.096;2022-10-15T17:19:16;13.40;99.90
65404;DHT22;52014;52.088;5.096;2022-10-15T17:21:42;13.30;99.90
65404;DHT22;52014;52.088;5.096;2022-10-15T17:24:08;13.30;99.90
65404;DHT22;52014;52.088;5.096;2022-10-15T17:26:35;13.30;99.90
65404;DHT22;52014;52.088;5.096;2022-10-15T17:29:03;13.30;99.90